sensor_id;sensor_type;location;lat;lon;timestamp;pressure;altitude;pressure_sealevel;temperature;humidity
13800;BME280;6971;50.028;9.258;2023-08-06T00:01:20;98590.53;;;13.65;100.00
13800;BME280;6971;50.028;9.258;2023-08-06T00:06:23;98596.16;;;13.72;100.00
13800;BME280;6971;50.028;9.258;2023-08-06T00:11:24;98587.59;;;13.79;100.00
13800;BME280;6971;50.028;9.258;2023-08-06T00:16:24;98584.03;;;13.69;100.00
13800;BME280;6971;50.028;9.258;2023-08-06T00:21:25;98576.06;;;13.69;100.00
13800;BME280;6971;50.028;9.258;2023-08-06T00:26:25;98575.22;;;13.80;100.00
13800;BME280;6971;50.028;9.258;2023-08-06T00:31:26;98567.44;;;13.88;100.00
13800;BME280;6971;50.028;9.258;2023-08-06T00:36:27;98569.63;;;13.83;100.00
13800;BME280;6971;50.028;9.258;2023-08-06T00:41:27;98559.56;;;13.77;100.00
13800;BME280;6971;50.028;9.258;2023-08-06T00:46:28;98564.56;;;13.91;100.00
13800;BME280;6971;50.028;9.258;2023-08-06T00:51:29;98555.66;;;13.92;100.00
13800;BME280;6971;50.028;9.258;2023-08-06T00:56:29;98560.13;;;13.92;100.00
13800;BME280;6971;50.028;9.258;2023-08-06T01:01:33;98554.03;;;13.80;100.00
13800;BME280;6971;50.028;9.258;2023-08-06T01:16:46;98524.75;;;13.81;100.00
13800;BME280;6971;50.028;9.258;2023-08-06T01:21:48;98522.25;;;13.80;100.00
13800;BME280;6971;50.028;9.258;2023-08-06T01:31:56;98506.63;;;13.65;100.00
13800;BME280;6971;50.028;9.258;2023-08-06T01:36:59;98501.19;;;13.78;100.00
13800;BME280;6971;50.028;9.258;2023-08-06T01:42:00;98489.19;;;13.63;100.00
13800;BME280;6971;50.028;9.258;2023-08-06T01:47:01;98482.69;;;13.67;100.00
13800;BME280;6971;50.028;9.258;2023-08-06T01:52:02;98467.31;;;13.61;100.00
13800;BME280;6971;50.028;9.258;2023-08-06T01:57:02;98468.00;;;13.63;100.00
13800;BME280;6971;50.028;9.258;2023-08-06T02:02:03;98466.25;;;13.40;100.00
13800;BME280;6971;50.028;9.258;2023-08-06T02:07:05;98465.28;;;13.53;100.00
13800;BME280;6971;50.028;9.258;2023-08-06T02:12:08;98450.56;;;13.60;100.00
13800;BME280;6971;50.028;9.258;2023-08-06T02:17:09;98450.91;;;13.67;100.00
13800;BME280;6971;50.028;9.258;2023-08-06T02:22:10;98451.03;;;13.65;100.00
13800;BME280;6971;50.028;9.258;2023-08-06T02:27:10;98447.41;;;13.66;100.00
13800;BME280;6971;50.028;9.258;2023-08-06T02:32:11;98443.69;;;13.69;100.00
13800;BME280;6971;50.028;9.258;2023-08-06T02:37:11;98437.88;;;13.75;100.00
13800;BME280;6971;50.028;9.258;2023-08-06T02:42:12;98431.50;;;13.78;100.00
13800;BME280;6971;50.028;9.258;2023-08-06T02:47:13;98423.09;;;13.73;100.00
13800;BME280;6971;50.028;9.258;2023-08-06T02:52:13;98417.03;;;13.82;100.00
13800;BME280;6971;50.028;9.258;2023-08-06T02:57:13;98423.28;;;13.81;100.00
13800;BME280;6971;50.028;9.258;2023-08-06T03:02:14;98413.53;;;13.81;100.00
13800;BME280;6971;50.028;9.258;2023-08-06T03:07:15;98415.28;;;13.71;100.00
13800;BME280;6971;50.028;9.258;2023-08-06T03:12:15;98405.66;;;13.91;100.00
13800;BME280;6971;50.028;9.258;2023-08-06T03:17:16;98401.47;;;13.89;100.00
13800;BME280;6971;50.028;9.258;2023-08-06T03:22:16;98390.34;;;13.95;100.00
13800;BME280;6971;50.028;9.258;2023-08-06T03:27:17;98399.56;;;14.01;100.00
13800;BME280;6971;50.028;9.258;2023-08-06T03:32:17;98388.81;;;13.71;100.00
13800;BME280;6971;50.028;9.258;2023-08-06T03:37:18;98384.03;;;13.86;100.00
13800;BME280;6971;50.028;9.258;2023-08-06T03:42:18;98385.50;;;13.79;100.00
13800;BME280;6971;50.028;9.258;2023-08-06T03:47:19;98386.81;;;13.63;100.00
13800;BME280;6971;50.028;9.258;2023-08-06T03:52:19;98384.28;;;13.62;100.00
13800;BME280;6971;50.028;9.258;2023-08-06T03:57:19;98368.47;;;13.72;100.00
13800;BME280;6971;50.028;9.258;2023-08-06T04:02:20;98368.97;;;13.65;100.00
13800;BME280;6971;50.028;9.258;2023-08-06T04:07:20;98370.91;;;13.63;100.00
13800;BME280;6971;50.028;9.258;2023-08-06T04:12:21;98365.19;;;13.47;100.00
13800;BME280;6971;50.028;9.258;2023-08-06T04:17:22;98372.84;;;13.61;100.00
13800;BME280;6971;50.028;9.258;2023-08-06T04:22:22;98371.75;;;13.64;100.00
13800;BME280;6971;50.028;9.258;2023-08-06T04:27:23;98368.16;;;13.65;100.00
13800;BME280;6971;50.028;9.258;2023-08-06T04:32:23;98362.31;;;13.71;100.00
13800;BME280;6971;50.028;9.258;2023-08-06T04:37:25;98350.75;;;13.72;100.00
13800;BME280;6971;50.028;9.258;2023-08-06T04:42:26;98345.09;;;13.77;100.00
13800;BME280;6971;50.028;9.258;2023-08-06T04:47:26;98341.72;;;13.75;100.00
13800;BME280;6971;50.028;9.258;2023-08-06T04:52:26;98344.75;;;13.70;100.00
13800;BME280;6971;50.028;9.258;2023-08-06T04:57:28;98350.94;;;13.80;100.00
13800;BME280;6971;50.028;9.258;2023-08-06T05:02:29;98344.31;;;13.86;100.00
13800;BME280;6971;50.028;9.258;2023-08-06T05:07:29;98339.38;;;14.03;100.00
13800;BME280;6971;50.028;9.258;2023-08-06T05:12:30;98340.78;;;14.07;100.00
13800;BME280;6971;50.028;9.258;2023-08-06T05:17:34;98339.38;;;14.03;100.00
13800;BME280;6971;50.028;9.258;2023-08-06T05:22:34;98348.88;;;14.05;100.00
13800;BME280;6971;50.028;9.258;2023-08-06T05:27:35;98355.66;;;13.98;100.00
13800;BME280;6971;50.028;9.258;2023-08-06T05:32:35;98350.94;;;13.80;100.00
13800;BME280;6971;50.028;9.258;2023-08-06T05:37:36;98361.94;;;13.76;100.00
13800;BME280;6971;50.028;9.258;2023-08-06T05:42:36;98362.84;;;13.86;100.00
13800;BME280;6971;50.028;9.258;2023-08-06T05:47:37;98355.53;;;14.00;100.00
13800;BME280;6971;50.028;9.258;2023-08-06T05:52:38;98352.38;;;14.16;100.00
13800;BME280;6971;50.028;9.258;2023-08-06T05:57:38;98354.19;;;14.15;100.00
13800;BME280;6971;50.028;9.258;2023-08-06T06:02:39;98357.94;;;14.13;100.00
13800;BME280;6971;50.028;9.258;2023-08-06T06:07:39;98350.09;;;14.32;100.00
13800;BME280;6971;50.028;9.258;2023-08-06T06:12:40;98352.88;;;14.31;100.00
13800;BME280;6971;50.028;9.258;2023-08-06T06:17:41;98358.97;;;14.21;100.00
13800;BME280;6971;50.028;9.258;2023-08-06T06:22:42;98357.00;;;14.14;100.00
13800;BME280;6971;50.028;9.258;2023-08-06T06:27:43;98361.53;;;14.33;100.00
13800;BME280;6971;50.028;9.258;2023-08-06T06:32:43;98364.34;;;14.10;100.00
13800;BME280;6971;50.028;9.258;2023-08-06T06:37:43;98374.13;;;13.88;100.00
13800;BME280;6971;50.028;9.258;2023-08-06T06:42:44;98372.66;;;13.74;100.00
13800;BME280;6971;50.028;9.258;2023-08-06T06:47:44;98370.84;;;13.53;100.00
13800;BME280;6971;50.028;9.258;2023-08-06T06:52:45;98371.41;;;13.57;100.00
13800;BME280;6971;50.028;9.258;2023-08-06T06:57:46;98366.91;;;13.69;100.00
13800;BME280;6971;50.028;9.258;2023-08-06T07:02:46;98366.41;;;13.54;100.00
13800;BME280;6971;50.028;9.258;2023-08-06T07:07:47;98364.00;;;13.51;100.00
13800;BME280;6971;50.028;9.258;2023-08-06T07:12:47;98363.47;;;13.57;100.00
13800;BME280;6971;50.028;9.258;2023-08-06T07:17:48;98363.94;;;13.62;100.00
13800;BME280;6971;50.028;9.258;2023-08-06T07:22:48;98365.66;;;13.52;100.00
13800;BME280;6971;50.028;9.258;2023-08-06T07:27:50;98370.63;;;13.66;100.00
13800;BME280;6971;50.028;9.258;2023-08-06T07:32:50;98373.19;;;13.89;100.00
13800;BME280;6971;50.028;9.258;2023-08-06T07:37:53;98369.56;;;13.90;100.00
13800;BME280;6971;50.028;9.258;2023-08-06T07:42:53;98371.25;;;13.70;100.00
13800;BME280;6971;50.028;9.258;2023-08-06T07:47:54;98367.41;;;13.84;100.00
13800;BME280;6971;50.028;9.258;2023-08-06T07:52:54;98359.09;;;13.89;100.00
13800;BME280;6971;50.028;9.258;2023-08-06T07:57:55;98355.44;;;13.80;100.00
13800;BME280;6971;50.028;9.258;2023-08-06T08:02:56;98351.69;;;13.82;100.00
13800;BME280;6971;50.028;9.258;2023-08-06T08:07:56;98355.16;;;13.83;100.00
13800;BME280;6971;50.028;9.258;2023-08-06T08:12:57;98361.03;;;13.87;100.00
13800;BME280;6971;50.028;9.258;2023-08-06T08:17:58;98355.34;;;13.91;100.00
13800;BME280;6971;50.028;9.258;2023-08-06T08:22:59;98357.53;;;13.86;100.00
13800;BME280;6971;50.028;9.258;2023-08-06T08:28:00;98351.53;;;13.84;100.00
13800;BME280;6971;50.028;9.258;2023-08-06T08:33:01;98344.56;;;13.83;100.00
13800;BME280;6971;50.028;9.258;2023-08-06T08:38:01;98342.03;;;13.81;100.00
13800;BME280;6971;50.028;9.258;2023-08-06T08:43:02;98340.16;;;13.93;100.00
13800;BME280;6971;50.028;9.258;2023-08-06T08:48:03;98339.69;;;13.88;100.00
13800;BME280;6971;50.028;9.258;2023-08-06T08:53:03;98339.41;;;14.13;100.00
13800;BME280;6971;50.028;9.258;2023-08-06T08:58:05;98342.22;;;14.21;100.00
13800;BME280;6971;50.028;9.258;2023-08-06T09:03:06;98339.97;;;14.47;100.00
13800;BME280;6971;50.028;9.258;2023-08-06T09:08:08;98343.81;;;14.33;100.00
13800;BME280;6971;50.028;9.258;2023-08-06T09:13:11;98340.59;;;14.30;100.00
13800;BME280;6971;50.028;9.258;2023-08-06T09:18:12;98345.16;;;14.49;100.00
13800;BME280;6971;50.028;9.258;2023-08-06T09:23:13;98334.88;;;14.75;100.00
13800;BME280;6971;50.028;9.258;2023-08-06T09:28:13;98343.59;;;15.07;100.00
13800;BME280;6971;50.028;9.258;2023-08-06T09:33:18;98343.03;;;15.04;100.00
13800;BME280;6971;50.028;9.258;2023-08-06T09:38:18;98343.59;;;15.17;100.00
13800;BME280;6971;50.028;9.258;2023-08-06T09:43:19;98343.16;;;15.42;100.00
13800;BME280;6971;50.028;9.258;2023-08-06T09:48:24;98343.84;;;15.73;100.00
13800;BME280;6971;50.028;9.258;2023-08-06T09:53:25;98328.16;;;16.00;100.00
13800;BME280;6971;50.028;9.258;2023-08-06T09:58:27;98321.81;;;16.49;100.00
13800;BME280;6971;50.028;9.258;2023-08-06T10:03:27;98323.69;;;17.21;100.00
13800;BME280;6971;50.028;9.258;2023-08-06T10:08:29;98321.84;;;16.85;100.00
13800;BME280;6971;50.028;9.258;2023-08-06T10:13:33;98320.47;;;16.35;100.00
13800;BME280;6971;50.028;9.258;2023-08-06T10:18:36;98315.63;;;16.48;100.00
13800;BME280;6971;50.028;9.258;2023-08-06T10:23:40;98311.50;;;16.64;100.00
13800;BME280;6971;50.028;9.258;2023-08-06T10:28:41;98304.47;;;17.09;100.00
13800;BME280;6971;50.028;9.258;2023-08-06T10:33:42;98305.13;;;17.74;100.00
13800;BME280;6971;50.028;9.258;2023-08-06T10:38:48;98300.00;;;17.09;100.00
13800;BME280;6971;50.028;9.258;2023-08-06T10:43:49;98285.44;;;16.39;100.00
13800;BME280;6971;50.028;9.258;2023-08-06T10:48:49;98292.44;;;16.12;100.00
13800;BME280;6971;50.028;9.258;2023-08-06T10:53:51;98303.63;;;16.16;100.00
13800;BME280;6971;50.028;9.258;2023-08-06T10:58:55;98299.19;;;16.07;100.00
13800;BME280;6971;50.028;9.258;2023-08-06T11:04:02;98298.31;;;16.44;100.00
13800;BME280;6971;50.028;9.258;2023-08-06T11:09:04;98336.81;;;16.02;100.00
13800;BME280;6971;50.028;9.258;2023-08-06T11:14:05;98318.97;;;14.75;100.00
13800;BME280;6971;50.028;9.258;2023-08-06T11:19:08;98312.47;;;14.48;100.00
13800;BME280;6971;50.028;9.258;2023-08-06T11:24:10;98306.91;;;14.61;100.00
13800;BME280;6971;50.028;9.258;2023-08-06T11:29:10;98303.94;;;15.06;100.00
13800;BME280;6971;50.028;9.258;2023-08-06T11:34:11;98314.81;;;15.32;100.00
13800;BME280;6971;50.028;9.258;2023-08-06T11:39:12;98311.75;;;15.37;100.00
13800;BME280;6971;50.028;9.258;2023-08-06T11:44:12;98316.88;;;15.68;100.00
13800;BME280;6971;50.028;9.258;2023-08-06T11:49:14;98309.22;;;15.55;100.00
13800;BME280;6971;50.028;9.258;2023-08-06T11:54:14;98308.78;;;15.50;100.00
13800;BME280;6971;50.028;9.258;2023-08-06T11:59:15;98313.09;;;15.81;100.00
13800;BME280;6971;50.028;9.258;2023-08-06T12:04:16;98309.00;;;15.96;100.00
13800;BME280;6971;50.028;9.258;2023-08-06T12:09:17;98316.38;;;16.40;100.00
13800;BME280;6971;50.028;9.258;2023-08-06T12:14:17;98319.06;;;16.30;100.00
13800;BME280;6971;50.028;9.258;2023-08-06T12:19:18;98301.94;;;16.89;100.00
13800;BME280;6971;50.028;9.258;2023-08-06T12:24:18;98306.09;;;16.74;100.00
13800;BME280;6971;50.028;9.258;2023-08-06T12:29:19;98308.28;;;16.60;100.00
13800;BME280;6971;50.028;9.258;2023-08-06T12:34:19;98344.81;;;15.72;100.00
13800;BME280;6971;50.028;9.258;2023-08-06T12:39:20;98355.63;;;15.41;100.00
13800;BME280;6971;50.028;9.258;2023-08-06T12:44:20;98370.84;;;15.19;100.00
13800;BME280;6971;50.028;9.258;2023-08-06T12:49:22;98404.56;;;14.78;100.00
13800;BME280;6971;50.028;9.258;2023-08-06T12:54:22;98403.38;;;14.70;100.00
13800;BME280;6971;50.028;9.258;2023-08-06T12:59:23;98401.63;;;14.49;100.00
13800;BME280;6971;50.028;9.258;2023-08-06T13:04:24;98431.41;;;14.32;100.00
13800;BME280;6971;50.028;9.258;2023-08-06T13:09:25;98437.44;;;14.34;100.00
13800;BME280;6971;50.028;9.258;2023-08-06T13:14:27;98450.88;;;14.52;100.00
13800;BME280;6971;50.028;9.258;2023-08-06T13:19:28;98464.56;;;14.47;100.00
13800;BME280;6971;50.028;9.258;2023-08-06T13:24:30;98467.69;;;14.31;100.00
13800;BME280;6971;50.028;9.258;2023-08-06T13:29:30;98475.44;;;14.23;100.00
13800;BME280;6971;50.028;9.258;2023-08-06T13:34:31;98477.50;;;14.19;100.00
13800;BME280;6971;50.028;9.258;2023-08-06T13:39:31;98487.59;;;14.04;100.00
13800;BME280;6971;50.028;9.258;2023-08-06T13:44:32;98479.16;;;13.99;100.00
13800;BME280;6971;50.028;9.258;2023-08-06T13:49:36;98490.09;;;14.06;100.00
13800;BME280;6971;50.028;9.258;2023-08-06T13:54:36;98508.78;;;14.04;100.00
13800;BME280;6971;50.028;9.258;2023-08-06T13:59:37;98515.25;;;13.79;100.00
13800;BME280;6971;50.028;9.258;2023-08-06T14:04:38;98523.94;;;13.69;100.00
13800;BME280;6971;50.028;9.258;2023-08-06T14:09:40;98512.88;;;13.76;100.00
13800;BME280;6971;50.028;9.258;2023-08-06T14:14:42;98514.44;;;13.67;100.00
13800;BME280;6971;50.028;9.258;2023-08-06T14:19:43;98536.03;;;13.62;100.00
13800;BME280;6971;50.028;9.258;2023-08-06T14:24:44;98546.25;;;13.55;100.00
13800;BME280;6971;50.028;9.258;2023-08-06T14:29:44;98543.84;;;13.52;100.00
13800;BME280;6971;50.028;9.258;2023-08-06T14:34:45;98556.59;;;13.58;100.00
13800;BME280;6971;50.028;9.258;2023-08-06T14:39:46;98567.28;;;13.34;100.00
13800;BME280;6971;50.028;9.258;2023-08-06T14:44:47;98563.44;;;13.38;100.00
13800;BME280;6971;50.028;9.258;2023-08-06T14:49:47;98574.03;;;13.38;100.00
13800;BME280;6971;50.028;9.258;2023-08-06T14:54:49;98581.25;;;13.36;100.00
13800;BME280;6971;50.028;9.258;2023-08-06T14:59:52;98584.38;;;13.30;100.00
13800;BME280;6971;50.028;9.258;2023-08-06T15:04:52;98590.41;;;13.32;100.00
13800;BME280;6971;50.028;9.258;2023-08-06T15:09:53;98596.66;;;13.42;100.00
13800;BME280;6971;50.028;9.258;2023-08-06T15:14:54;98598.94;;;13.24;100.00
13800;BME280;6971;50.028;9.258;2023-08-06T15:19:57;98601.47;;;13.26;100.00
13800;BME280;6971;50.028;9.258;2023-08-06T15:25:02;98611.09;;;13.38;100.00
13800;BME280;6971;50.028;9.258;2023-08-06T15:30:04;98625.16;;;13.27;100.00
13800;BME280;6971;50.028;9.258;2023-08-06T15:35:06;98625.28;;;13.26;100.00
13800;BME280;6971;50.028;9.258;2023-08-06T15:40:08;98627.94;;;13.14;100.00
13800;BME280;6971;50.028;9.258;2023-08-06T15:45:10;98623.72;;;13.12;100.00
13800;BME280;6971;50.028;9.258;2023-08-06T15:50:10;98632.84;;;13.19;100.00
13800;BME280;6971;50.028;9.258;2023-08-06T15:55:11;98631.88;;;13.09;100.00
13800;BME280;6971;50.028;9.258;2023-08-06T16:00:14;98645.59;;;13.14;100.00
13800;BME280;6971;50.028;9.258;2023-08-06T16:05:14;98645.69;;;13.12;100.00
13800;BME280;6971;50.028;9.258;2023-08-06T16:10:15;98656.06;;;13.15;100.00
13800;BME280;6971;50.028;9.258;2023-08-06T16:15:16;98664.09;;;13.02;100.00
13800;BME280;6971;50.028;9.258;2023-08-06T16:20:19;98667.25;;;13.08;100.00
13800;BME280;6971;50.028;9.258;2023-08-06T16:25:20;98673.88;;;13.13;100.00
13800;BME280;6971;50.028;9.258;2023-08-06T16:30:21;98681.81;;;13.13;100.00
13800;BME280;6971;50.028;9.258;2023-08-06T16:35:21;98687.31;;;13.10;100.00
13800;BME280;6971;50.028;9.258;2023-08-06T16:40:22;98683.72;;;13.11;100.00
13800;BME280;6971;50.028;9.258;2023-08-06T16:45:23;98687.81;;;13.15;100.00
13800;BME280;6971;50.028;9.258;2023-08-06T16:50:23;98690.09;;;13.20;100.00
13800;BME280;6971;50.028;9.258;2023-08-06T16:55:23;98704.31;;;13.30;100.00
13800;BME280;6971;50.028;9.258;2023-08-06T17:00:25;98714.09;;;13.05;100.00
13800;BME280;6971;50.028;9.258;2023-08-06T17:05:27;98704.00;;;13.11;100.00
13800;BME280;6971;50.028;9.258;2023-08-06T17:10:33;98710.75;;;13.15;100.00
13800;BME280;6971;50.028;9.258;2023-08-06T17:15:33;98724.13;;;13.13;100.00
13800;BME280;6971;50.028;9.258;2023-08-06T17:20:35;98726.25;;;13.08;100.00
13800;BME280;6971;50.028;9.258;2023-08-06T17:25:35;98721.16;;;12.93;100.00
13800;BME280;6971;50.028;9.258;2023-08-06T17:30:36;98725.00;;;12.89;100.00
13800;BME280;6971;50.028;9.258;2023-08-06T17:35:43;98722.84;;;12.83;100.00
13800;BME280;6971;50.028;9.258;2023-08-06T17:40:44;98748.88;;;12.76;100.00
13800;BME280;6971;50.028;9.258;2023-08-06T17:45:45;98738.69;;;12.83;100.00
13800;BME280;6971;50.028;9.258;2023-08-06T17:50:46;98740.88;;;12.65;100.00
13800;BME280;6971;50.028;9.258;2023-08-06T17:55:47;98745.22;;;12.66;100.00
13800;BME280;6971;50.028;9.258;2023-08-06T18:00:48;98746.19;;;12.65;100.00
13800;BME280;6971;50.028;9.258;2023-08-06T18:05:57;98740.59;;;12.57;100.00
13800;BME280;6971;50.028;9.258;2023-08-06T18:10:58;98751.13;;;12.45;100.00
13800;BME280;6971;50.028;9.258;2023-08-06T18:15:58;98757.53;;;12.54;100.00
13800;BME280;6971;50.028;9.258;2023-08-06T18:20:59;98761.47;;;12.48;100.00
13800;BME280;6971;50.028;9.258;2023-08-06T18:26:00;98760.28;;;12.52;100.00
13800;BME280;6971;50.028;9.258;2023-08-06T18:31:01;98755.56;;;12.45;100.00
13800;BME280;6971;50.028;9.258;2023-08-06T18:36:01;98754.59;;;12.46;100.00
13800;BME280;6971;50.028;9.258;2023-08-06T18:41:02;98758.22;;;12.45;100.00
13800;BME280;6971;50.028;9.258;2023-08-06T18:46:03;98768.06;;;12.43;100.00
13800;BME280;6971;50.028;9.258;2023-08-06T18:51:04;98760.66;;;12.35;100.00
13800;BME280;6971;50.028;9.258;2023-08-06T18:56:04;98769.75;;;12.44;100.00
13800;BME280;6971;50.028;9.258;2023-08-06T19:01:05;98771.63;;;12.42;100.00
13800;BME280;6971;50.028;9.258;2023-08-06T19:06:06;98770.41;;;12.34;100.00
13800;BME280;6971;50.028;9.258;2023-08-06T19:11:07;98786.88;;;12.38;100.00
13800;BME280;6971;50.028;9.258;2023-08-06T19:16:08;98782.25;;;12.29;100.00
13800;BME280;6971;50.028;9.258;2023-08-06T19:21:09;98792.72;;;12.30;100.00
13800;BME280;6971;50.028;9.258;2023-08-06T19:26:10;98791.75;;;12.31;100.00
13800;BME280;6971;50.028;9.258;2023-08-06T19:31:10;98803.84;;;12.22;100.00
13800;BME280;6971;50.028;9.258;2023-08-06T19:36:11;98796.03;;;12.21;100.00
13800;BME280;6971;50.028;9.258;2023-08-06T19:41:13;98802.06;;;12.10;100.00
13800;BME280;6971;50.028;9.258;2023-08-06T19:46:15;98796.63;;;12.24;100.00
13800;BME280;6971;50.028;9.258;2023-08-06T19:51:15;98792.56;;;12.07;100.00
13800;BME280;6971;50.028;9.258;2023-08-06T19:56:17;98798.78;;;12.06;100.00
13800;BME280;6971;50.028;9.258;2023-08-06T20:01:18;98809.84;;;11.98;100.00
13800;BME280;6971;50.028;9.258;2023-08-06T20:06:22;98801.09;;;11.98;100.00
13800;BME280;6971;50.028;9.258;2023-08-06T20:11:29;98803.94;;;11.95;100.00
13800;BME280;6971;50.028;9.258;2023-08-06T20:16:31;98793.59;;;11.92;100.00
13800;BME280;6971;50.028;9.258;2023-08-06T20:27:28;98807.88;;;11.76;100.00
13800;BME280;6971;50.028;9.258;2023-08-06T20:32:29;98801.31;;;11.69;100.00
13800;BME280;6971;50.028;9.258;2023-08-06T20:37:35;98802.78;;;11.73;100.00
13800;BME280;6971;50.028;9.258;2023-08-06T20:42:37;98810.19;;;11.68;100.00
13800;BME280;6971;50.028;9.258;2023-08-06T20:47:38;98814.41;;;11.70;100.00
13800;BME280;6971;50.028;9.258;2023-08-06T20:52:38;98820.94;;;11.65;100.00
13800;BME280;6971;50.028;9.258;2023-08-06T20:57:39;98805.94;;;11.52;100.00
13800;BME280;6971;50.028;9.258;2023-08-06T21:02:40;98815.25;;;11.58;100.00
13800;BME280;6971;50.028;9.258;2023-08-06T21:07:41;98813.66;;;11.55;100.00
13800;BME280;6971;50.028;9.258;2023-08-06T21:12:42;98813.34;;;11.60;100.00
13800;BME280;6971;50.028;9.258;2023-08-06T21:17:43;98815.00;;;11.48;100.00
13800;BME280;6971;50.028;9.258;2023-08-06T21:22:44;98807.63;;;11.40;100.00
13800;BME280;6971;50.028;9.258;2023-08-06T21:27:45;98809.97;;;11.45;100.00
13800;BME280;6971;50.028;9.258;2023-08-06T21:32:48;98809.97;;;11.45;100.00
13800;BME280;6971;50.028;9.258;2023-08-06T21:37:49;98818.72;;;11.45;100.00
13800;BME280;6971;50.028;9.258;2023-08-06T21:42:49;98816.94;;;11.46;100.00
13800;BME280;6971;50.028;9.258;2023-08-06T21:47:50;98838.44;;;11.40;100.00
13800;BME280;6971;50.028;9.258;2023-08-06T21:52:51;98832.09;;;11.42;100.00
13800;BME280;6971;50.028;9.258;2023-08-06T21:57:52;98849.22;;;11.49;100.00
13800;BME280;6971;50.028;9.258;2023-08-06T22:02:53;98832.84;;;11.44;100.00
13800;BME280;6971;50.028;9.258;2023-08-06T22:07:54;98835.50;;;11.44;100.00
13800;BME280;6971;50.028;9.258;2023-08-06T22:12:55;98838.56;;;11.51;100.00
13800;BME280;6971;50.028;9.258;2023-08-06T22:17:56;98853.75;;;11.47;100.00
13800;BME280;6971;50.028;9.258;2023-08-06T22:22:57;98842.06;;;11.52;100.00
13800;BME280;6971;50.028;9.258;2023-08-06T22:27:58;98859.03;;;11.47;100.00
13800;BME280;6971;50.028;9.258;2023-08-06T22:32:59;98851.56;;;11.54;100.00
13800;BME280;6971;50.028;9.258;2023-08-06T22:38:01;98861.88;;;11.57;100.00
13800;BME280;6971;50.028;9.258;2023-08-06T22:43:01;98875.41;;;11.53;100.00
13800;BME280;6971;50.028;9.258;2023-08-06T22:48:03;98882.06;;;11.58;100.00
13800;BME280;6971;50.028;9.258;2023-08-06T22:53:04;98890.09;;;11.57;100.00
13800;BME280;6971;50.028;9.258;2023-08-06T22:58:04;98901.19;;;11.62;100.00
13800;BME280;6971;50.028;9.258;2023-08-06T23:03:04;98902.03;;;11.62;100.00
13800;BME280;6971;50.028;9.258;2023-08-06T23:08:05;98909.63;;;11.54;100.00
13800;BME280;6971;50.028;9.258;2023-08-06T23:13:07;98912.16;;;11.56;100.00
13800;BME280;6971;50.028;9.258;2023-08-06T23:18:08;98912.44;;;11.51;100.00
13800;BME280;6971;50.028;9.258;2023-08-06T23:23:09;98923.00;;;11.51;100.00
13800;BME280;6971;50.028;9.258;2023-08-06T23:28:09;98918.69;;;11.50;100.00
13800;BME280;6971;50.028;9.258;2023-08-06T23:33:10;98937.88;;;11.52;100.00
13800;BME280;6971;50.028;9.258;2023-08-06T23:38:10;98938.28;;;11.46;100.00
13800;BME280;6971;50.028;9.258;2023-08-06T23:43:11;98934.50;;;11.50;100.00
13800;BME280;6971;50.028;9.258;2023-08-06T23:48:12;98938.69;;;11.40;100.00
13800;BME280;6971;50.028;9.258;2023-08-06T23:53:13;98937.44;;;11.45;100.00
13800;BME280;6971;50.028;9.258;2023-08-06T23:58:13;98938.81;;;11.38;100.00
